createdAt,value
2022-09-22T00:01:21.826Z,3.47
2022-09-22T00:03:52.291Z,4.10
2022-09-22T00:06:22.278Z,5.47
2022-09-22T00:08:52.414Z,3.55
2022-09-22T00:11:28.866Z,5.05
2022-09-22T00:14:01.742Z,4.20
2022-09-22T00:16:37.423Z,5.78
2022-09-22T00:19:06.907Z,5.10
2022-09-22T00:21:34.339Z,5.10
2022-09-22T00:24:03.034Z,3.78
2022-09-22T00:26:31.253Z,5.20
2022-09-22T00:28:58.613Z,5.00
2022-09-22T00:31:26.027Z,3.22
2022-09-22T00:33:54.518Z,4.32
2022-09-22T00:36:25.609Z,5.68
2022-09-22T00:38:54.042Z,3.87
2022-09-22T00:41:27.623Z,5.78
2022-09-22T00:44:29.914Z,3.53
2022-09-22T00:47:08.506Z,3.35
2022-09-22T00:49:44.790Z,5.43
2022-09-22T00:52:15.942Z,7.25
2022-09-22T00:54:43.344Z,4.10
2022-09-22T00:57:14.519Z,5.22
2022-09-22T00:59:44.103Z,6.30
2022-09-22T01:02:11.513Z,4.07
2022-09-22T01:04:39.290Z,3.67
2022-09-22T01:07:07.168Z,3.65
2022-09-22T01:09:34.803Z,5.05
2022-09-22T01:12:03.012Z,5.07
2022-09-22T01:14:38.907Z,4.57
2022-09-22T01:17:23.125Z,4.68
2022-09-22T01:20:03.984Z,6.55
2022-09-22T01:23:08.593Z,4.15
2022-09-22T01:26:00.426Z,3.78
2022-09-22T01:28:39.650Z,4.43
2022-09-22T01:31:19.375Z,4.40
2022-09-22T01:33:50.834Z,4.70
2022-09-22T01:36:25.833Z,3.62
2022-09-22T01:39:04.926Z,4.80
2022-09-22T01:41:58.257Z,5.15
2022-09-22T01:44:32.895Z,6.57
2022-09-22T01:47:10.928Z,4.53
2022-09-22T01:49:44.346Z,4.00
2022-09-22T01:52:16.710Z,3.87
2022-09-22T01:54:47.280Z,6.53
2022-09-22T01:57:21.891Z,4.68
2022-09-22T01:59:55.998Z,4.65
2022-09-22T02:02:39.619Z,4.97
2022-09-22T02:05:12.398Z,4.80
2022-09-22T02:10:10.467Z,5.15
2022-09-22T02:12:38.195Z,5.62
2022-09-22T02:15:26.886Z,5.62
2022-09-22T02:17:57.130Z,5.50
2022-09-22T02:20:25.772Z,5.00
2022-09-22T02:22:54.148Z,4.57
2022-09-22T02:25:23.732Z,7.35
2022-09-22T02:27:53.519Z,4.47
2022-09-22T02:30:22.156Z,4.15
2022-09-22T02:32:51.307Z,5.85
2022-09-22T02:35:18.709Z,5.75
2022-09-22T02:37:51.136Z,3.55
2022-09-22T02:40:32.691Z,5.60
2022-09-22T02:43:09.808Z,6.40
2022-09-22T02:45:45.559Z,6.37
2022-09-22T02:48:25.098Z,5.35
2022-09-22T02:50:54.193Z,4.20
2022-09-22T02:53:21.485Z,6.87
2022-09-22T02:55:49.258Z,4.80
2022-09-22T02:58:17.280Z,5.95
2022-09-22T03:00:45.375Z,4.80
2022-09-22T03:03:13.074Z,4.50
2022-09-22T03:05:40.655Z,5.25
2022-09-22T03:08:08.131Z,4.72
2022-09-22T03:10:35.446Z,5.32
2022-09-22T03:13:16.065Z,4.75
2022-09-22T03:15:46.635Z,4.28
2022-09-22T03:18:14.671Z,5.97
2022-09-22T03:20:41.959Z,5.28
2022-09-22T03:23:09.491Z,6.28
2022-09-22T03:25:37.048Z,5.30
2022-09-22T03:28:04.412Z,5.22
2022-09-22T03:30:31.797Z,4.90
2022-09-22T03:32:59.416Z,5.45
2022-09-22T03:35:26.706Z,5.70
2022-09-22T03:37:53.997Z,4.87
2022-09-22T03:40:22.600Z,5.12
2022-09-22T03:42:49.951Z,5.20
2022-09-22T03:45:17.306Z,6.85
2022-09-22T03:47:44.881Z,5.95
2022-09-22T03:50:13.615Z,8.35
2022-09-22T03:52:43.015Z,6.25
2022-09-22T03:55:11.136Z,5.28
2022-09-22T03:57:39.138Z,4.25
2022-09-22T04:00:07.554Z,5.47
2022-09-22T04:02:39.285Z,4.65
2022-09-22T04:05:07.404Z,5.62
2022-09-22T04:07:35.247Z,6.80
2022-09-22T04:10:03.135Z,4.65
2022-09-22T04:12:30.690Z,5.65
2022-09-22T04:14:58.017Z,5.05
2022-09-22T04:17:25.318Z,6.75
2022-09-22T04:19:53.930Z,7.85
2022-09-22T04:22:21.224Z,5.80
2022-09-22T04:24:48.554Z,6.55
2022-09-22T04:27:19.898Z,5.03
2022-09-22T04:29:47.840Z,5.35
2022-09-22T04:32:15.911Z,5.47
2022-09-22T04:34:43.728Z,6.55
2022-09-22T04:37:11.748Z,6.45
2022-09-22T04:39:39.406Z,7.12
2022-09-22T04:42:08.955Z,5.40
2022-09-22T04:44:36.654Z,5.37
2022-09-22T04:47:04.651Z,6.45
2022-09-22T04:49:32.221Z,6.57
2022-09-22T04:51:59.528Z,8.15
2022-09-22T04:54:26.854Z,6.65
2022-09-22T04:56:54.414Z,8.32
2022-09-22T04:59:21.799Z,8.20
2022-09-22T05:01:49.202Z,6.93
2022-09-22T05:04:18.090Z,5.32
2022-09-22T05:06:45.392Z,7.43
2022-09-22T05:09:12.977Z,10.50
2022-09-22T05:11:40.555Z,10.43
2022-09-22T05:14:07.889Z,8.57
2022-09-22T05:16:35.499Z,7.75
2022-09-22T05:19:03.251Z,5.50
2022-09-22T05:21:30.543Z,5.20
2022-09-22T05:23:58.212Z,7.00
2022-09-22T05:26:25.823Z,5.75
2022-09-22T05:28:53.403Z,5.72
2022-09-22T05:31:20.900Z,7.57
2022-09-22T05:33:48.565Z,6.50
2022-09-22T05:36:16.471Z,7.25
2022-09-22T05:38:43.766Z,6.10
2022-09-22T05:41:11.393Z,6.68
2022-09-22T05:43:38.713Z,6.65
2022-09-22T05:46:06.105Z,6.93
2022-09-22T05:48:33.680Z,6.53
2022-09-22T05:51:01.262Z,6.62
2022-09-22T05:53:28.550Z,7.50
2022-09-22T05:56:00.074Z,9.82
2022-09-22T05:58:47.869Z,8.18
2022-09-22T06:01:15.482Z,6.82
2022-09-22T06:03:43.187Z,7.15
2022-09-22T06:06:10.530Z,6.37
2022-09-22T06:08:37.970Z,6.25
2022-09-22T06:11:05.770Z,5.85
2022-09-22T06:13:33.065Z,5.18
2022-09-22T06:16:04.240Z,6.05
2022-09-22T06:18:31.852Z,7.83
2022-09-22T06:20:59.814Z,7.10
2022-09-22T06:23:27.119Z,4.95
2022-09-22T06:25:58.875Z,7.57
2022-09-22T06:28:26.299Z,4.67
2022-09-22T06:30:53.592Z,5.03
2022-09-22T06:33:23.834Z,8.45
2022-09-22T06:35:51.125Z,4.75
2022-09-22T06:38:18.489Z,7.07
2022-09-22T06:40:46.364Z,6.32
2022-09-22T06:43:20.334Z,5.00
2022-09-22T06:45:49.006Z,6.25
2022-09-22T06:48:16.962Z,5.10
2022-09-22T06:50:48.849Z,4.53
2022-09-22T06:53:17.447Z,5.53
2022-09-22T06:55:44.939Z,5.30
2022-09-22T06:58:13.596Z,5.78
2022-09-22T07:00:43.388Z,4.85
2022-09-22T07:03:22.416Z,7.18
2022-09-22T07:06:01.507Z,5.10
2022-09-22T07:08:31.354Z,4.97
2022-09-22T07:11:04.019Z,3.72
2022-09-22T07:13:32.213Z,4.50
2022-09-22T07:16:11.461Z,4.28
2022-09-22T07:18:43.828Z,3.15
2022-09-22T07:21:26.332Z,3.22
2022-09-22T07:23:55.392Z,4.22
2022-09-22T07:26:32.682Z,3.90
2022-09-22T07:29:13.256Z,2.87
2022-09-22T07:31:41.820Z,3.28
2022-09-22T07:34:09.372Z,5.85
2022-09-22T07:36:39.971Z,4.62
2022-09-22T07:39:10.931Z,4.65
2022-09-22T07:41:44.248Z,4.07
2022-09-22T07:44:32.330Z,3.45
2022-09-22T07:47:00.684Z,4.82
2022-09-22T07:49:28.473Z,4.45
2022-09-22T07:51:57.202Z,3.62
2022-09-22T07:54:25.834Z,3.60
2022-09-22T07:56:58.050Z,3.53
2022-09-22T07:59:45.651Z,3.58
2022-09-22T08:02:14.806Z,3.00
2022-09-22T08:04:42.455Z,3.62
2022-09-22T08:07:09.741Z,3.75
2022-09-22T08:09:37.022Z,3.78
2022-09-22T08:12:04.600Z,4.00
2022-09-22T08:14:32.099Z,5.30
2022-09-22T08:16:59.382Z,5.25
2022-09-22T08:19:27.084Z,3.87
2022-09-22T08:21:54.672Z,4.12
2022-09-22T08:24:23.117Z,4.62
2022-09-22T08:26:52.886Z,7.15
2022-09-22T08:29:20.986Z,4.85
2022-09-22T08:31:49.262Z,5.93
2022-09-22T08:34:17.837Z,6.10
2022-09-22T08:36:48.808Z,4.00
2022-09-22T08:39:17.883Z,4.67
2022-09-22T08:41:47.872Z,6.62
2022-09-22T08:44:41.023Z,3.80
2022-09-22T08:47:16.776Z,4.45
2022-09-22T08:50:05.615Z,4.40
2022-09-22T08:52:35.585Z,4.20
2022-09-22T08:55:03.326Z,4.35
2022-09-22T08:57:45.898Z,11.70
2022-09-22T09:00:15.454Z,11.93
2022-09-22T09:03:09.825Z,5.22
2022-09-22T09:05:48.258Z,4.25
2022-09-22T09:08:15.410Z,4.82
2022-09-22T09:10:57.263Z,3.37
2022-09-22T09:14:03.349Z,2.13
2022-09-22T09:16:53.941Z,4.78
2022-09-22T09:19:40.428Z,2.85
2022-09-22T09:22:25.580Z,2.35
2022-09-22T09:27:58.867Z,2.08
2022-09-22T09:30:26.416Z,1.35
2022-09-22T09:33:00.519Z,3.47
2022-09-22T09:35:45.232Z,1.50
2022-09-22T09:38:15.159Z,1.30
2022-09-22T09:40:46.085Z,1.85
2022-09-22T09:43:13.643Z,1.60
2022-09-22T09:45:56.075Z,2.45
2022-09-22T09:48:40.811Z,1.80
2022-09-22T09:51:12.592Z,2.05
2022-09-22T09:53:44.663Z,2.50
2022-09-22T09:56:23.935Z,2.10
2022-09-22T09:59:15.468Z,2.17
2022-09-22T10:01:45.242Z,1.50
2022-09-22T10:04:31.059Z,2.55
2022-09-22T10:07:16.630Z,2.03
2022-09-22T10:09:44.785Z,1.95
2022-09-22T10:12:24.262Z,1.77
2022-09-22T10:14:54.193Z,2.70
2022-09-22T10:17:24.599Z,2.25
2022-09-22T10:19:52.155Z,1.52
2022-09-22T10:22:28.711Z,2.22
2022-09-22T10:25:01.303Z,2.60
2022-09-22T10:27:31.591Z,2.85
2022-09-22T10:30:11.387Z,1.60
2022-09-22T10:32:39.664Z,2.62
2022-09-22T10:35:28.660Z,1.92
2022-09-22T10:38:02.908Z,1.87
2022-09-22T10:40:31.397Z,1.73
2022-09-22T10:42:59.520Z,1.50
2022-09-22T10:46:17.115Z,2.30
2022-09-22T10:48:49.289Z,1.60
2022-09-22T10:51:33.062Z,1.67
2022-09-22T10:54:41.821Z,1.75
2022-09-22T10:57:34.426Z,2.65
2022-09-22T11:00:14.135Z,1.98
2022-09-22T11:03:19.203Z,2.12
2022-09-22T11:06:42.876Z,3.47
2022-09-22T11:09:50.347Z,1.90
2022-09-22T11:12:29.943Z,2.33
2022-09-22T11:15:19.101Z,2.53
2022-09-22T11:17:54.319Z,2.08
2022-09-22T11:20:39.843Z,1.40
2022-09-22T11:23:57.048Z,1.85
2022-09-22T11:26:43.028Z,1.60
2022-09-22T11:29:28.547Z,1.08
2022-09-22T11:32:04.115Z,1.58
2022-09-22T11:34:56.348Z,2.78
2022-09-22T11:37:32.860Z,3.03
2022-09-22T11:40:20.898Z,3.20
2022-09-22T11:43:03.885Z,1.23
2022-09-22T11:45:58.869Z,2.08
2022-09-22T11:48:44.764Z,1.58
2022-09-22T11:51:27.542Z,2.00
2022-09-22T11:53:58.312Z,1.40
2022-09-22T11:56:33.319Z,1.40
2022-09-22T11:59:06.495Z,3.25
2022-09-22T12:01:38.186Z,1.95
2022-09-22T12:04:35.433Z,1.30
2022-09-22T12:07:03.289Z,1.48
2022-09-22T12:09:37.306Z,1.30
2022-09-22T12:12:06.267Z,1.90
2022-09-22T12:14:35.448Z,1.23
2022-09-22T12:17:11.656Z,1.67
2022-09-22T12:20:05.781Z,2.08
2022-09-22T12:22:49.307Z,2.95
2022-09-22T12:25:53.980Z,2.37
2022-09-22T12:28:25.937Z,2.25
2022-09-22T12:31:06.778Z,2.20
2022-09-22T12:33:54.311Z,2.37
2022-09-22T12:36:38.943Z,3.47
2022-09-22T12:39:31.040Z,3.00
2022-09-22T12:42:03.909Z,1.92
2022-09-22T12:44:46.279Z,2.50
2022-09-22T12:47:25.296Z,2.25
2022-09-22T12:50:00.040Z,4.82
2022-09-22T12:52:47.941Z,7.95
2022-09-22T12:55:28.549Z,8.45
2022-09-22T12:58:03.387Z,5.82
2022-09-22T13:00:40.684Z,6.80
2022-09-22T13:03:26.395Z,5.18
2022-09-22T13:06:23.049Z,2.42
2022-09-22T13:08:53.676Z,3.37
2022-09-22T13:11:59.608Z,2.00
2022-09-22T13:15:04.834Z,5.97
2022-09-22T13:17:49.385Z,5.85
2022-09-22T13:20:32.898Z,2.67
2022-09-22T13:23:12.033Z,2.75
2022-09-22T13:25:41.033Z,3.95
2022-09-22T13:28:08.194Z,3.70
2022-09-22T13:30:36.402Z,4.30
2022-09-22T13:33:04.081Z,3.12
2022-09-22T13:35:37.530Z,5.10
2022-09-22T13:38:05.382Z,3.90
2022-09-22T13:40:34.799Z,3.72
2022-09-22T13:43:06.654Z,4.20
2022-09-22T13:45:35.407Z,6.12
2022-09-22T13:48:08.779Z,4.15
2022-09-22T13:51:01.467Z,4.05
2022-09-22T13:55:57.712Z,6.22
2022-09-22T13:58:35.220Z,4.10
2022-09-22T14:01:19.839Z,9.88
2022-09-22T14:03:48.865Z,3.28
2022-09-22T14:06:18.654Z,8.65
2022-09-22T14:08:47.928Z,12.70
2022-09-22T14:11:18.257Z,9.05
2022-09-22T14:13:54.881Z,4.93
2022-09-22T14:16:48.353Z,5.00
2022-09-22T14:19:23.295Z,7.40
2022-09-22T14:21:58.211Z,5.53
2022-09-22T14:24:26.691Z,4.07
2022-09-22T14:27:01.615Z,4.22
2022-09-22T14:29:33.307Z,3.30
2022-09-22T14:32:18.213Z,2.70
2022-09-22T14:34:50.796Z,1.83
2022-09-22T14:37:27.910Z,2.92
2022-09-22T14:39:57.938Z,2.22
2022-09-22T14:42:29.157Z,3.15
2022-09-22T14:45:08.511Z,5.15
2022-09-22T14:47:40.388Z,4.03
2022-09-22T14:50:19.950Z,4.03
2022-09-22T14:53:01.727Z,5.57
2022-09-22T14:55:37.621Z,4.00
2022-09-22T14:58:17.463Z,5.35
2022-09-22T15:01:16.959Z,3.25
2022-09-22T15:03:54.356Z,3.22
2022-09-22T15:06:21.978Z,5.50
2022-09-22T15:08:52.085Z,6.53
2022-09-22T15:11:19.471Z,4.70
2022-09-22T15:13:50.785Z,4.10
2022-09-22T15:16:38.635Z,6.25
2022-09-22T15:19:10.937Z,2.17
2022-09-22T15:21:40.583Z,4.87
2022-09-22T15:24:10.862Z,4.53
2022-09-22T15:26:39.456Z,5.60
2022-09-22T15:29:06.785Z,5.45
2022-09-22T15:31:36.863Z,3.10
2022-09-22T15:34:04.455Z,3.50
2022-09-22T15:36:32.891Z,3.20
2022-09-22T15:39:06.808Z,5.95
2022-09-22T15:41:34.861Z,4.47
2022-09-22T15:44:03.067Z,5.80
2022-09-22T15:46:36.270Z,28.70
2022-09-22T15:49:12.327Z,24.77
2022-09-22T15:51:39.604Z,11.38
2022-09-22T15:54:15.103Z,11.60
2022-09-22T15:56:43.302Z,10.45
2022-09-22T15:59:16.909Z,9.50
2022-09-22T16:02:10.288Z,13.00
2022-09-22T16:04:37.908Z,11.30
2022-09-22T16:07:08.338Z,11.57
2022-09-22T16:09:35.722Z,10.18
2022-09-22T16:12:03.332Z,8.32
2022-09-22T16:14:30.624Z,9.35
2022-09-22T16:16:58.183Z,10.90
2022-09-22T16:19:37.782Z,15.35
2022-09-22T16:22:12.388Z,12.77
2022-09-22T16:24:39.968Z,15.63
2022-09-22T16:27:07.416Z,14.15
2022-09-22T16:29:37.324Z,30.58
2022-09-22T16:32:04.908Z,14.48
2022-09-22T16:34:34.557Z,13.45
2022-09-22T16:37:02.288Z,13.57
2022-09-22T16:39:29.865Z,12.70
2022-09-22T16:41:57.216Z,11.55
2022-09-22T16:44:24.517Z,14.80
2022-09-22T16:46:52.103Z,71.40
2022-09-22T16:49:20.912Z,90.80
2022-09-22T16:51:54.135Z,106.57
2022-09-22T16:54:21.734Z,78.62
2022-09-22T16:56:50.566Z,40.53
2022-09-22T16:59:19.715Z,41.17
2022-09-22T17:01:47.415Z,33.00
2022-09-22T17:04:16.665Z,37.40
2022-09-22T17:06:44.468Z,37.22
2022-09-22T17:09:12.992Z,40.63
2022-09-22T17:11:42.655Z,37.78
2022-09-22T17:14:17.739Z,34.47
2022-09-22T17:16:51.821Z,29.33
2022-09-22T17:19:21.856Z,25.30
2022-09-22T17:21:51.901Z,21.23
2022-09-22T17:24:19.748Z,19.87
2022-09-22T17:26:49.934Z,17.45
2022-09-22T17:29:25.487Z,18.45
2022-09-22T17:31:57.711Z,30.02
2022-09-22T17:34:29.634Z,46.72
2022-09-22T17:36:57.389Z,48.70
2022-09-22T17:39:26.732Z,42.30
2022-09-22T17:41:54.992Z,25.62
2022-09-22T17:44:22.755Z,20.30
2022-09-22T17:47:10.896Z,16.42
2022-09-22T17:49:58.444Z,14.07
2022-09-22T17:52:29.656Z,15.88
2022-09-22T17:55:07.383Z,14.35
2022-09-22T17:57:36.134Z,17.75
2022-09-22T18:00:06.316Z,16.73
2022-09-22T18:02:37.392Z,18.58
2022-09-22T18:05:12.718Z,23.65
2022-09-22T18:07:40.812Z,28.73
2022-09-22T18:10:10.195Z,24.35
2022-09-22T18:12:37.926Z,47.33
2022-09-22T18:15:06.234Z,51.45
2022-09-22T18:17:41.931Z,42.88
2022-09-22T18:20:11.757Z,33.25
2022-09-22T18:22:40.016Z,32.50
2022-09-22T18:25:09.012Z,36.47
2022-09-22T18:27:37.260Z,31.58
2022-09-22T18:30:06.178Z,28.38
2022-09-22T18:32:34.783Z,25.27
2022-09-22T18:35:02.539Z,20.27
2022-09-22T18:37:30.120Z,19.10
2022-09-22T18:39:57.513Z,18.02
2022-09-22T18:42:25.263Z,12.25
2022-09-22T18:45:25.132Z,10.90
2022-09-22T18:47:52.709Z,11.45
2022-09-22T18:50:20.396Z,10.30
2022-09-22T18:52:47.780Z,9.88
2022-09-22T18:55:18.218Z,9.07
2022-09-22T18:57:47.750Z,9.90
2022-09-22T19:00:15.968Z,8.90
2022-09-22T19:02:43.560Z,9.25
2022-09-22T19:05:10.887Z,10.77
2022-09-22T19:07:43.338Z,9.80
2022-09-22T19:10:13.357Z,11.05
2022-09-22T19:12:41.018Z,11.50
2022-09-22T19:15:16.554Z,10.98
2022-09-22T19:17:46.395Z,8.68
2022-09-22T19:20:20.836Z,6.35
2022-09-22T19:22:50.362Z,7.30
2022-09-22T19:25:21.452Z,8.50
2022-09-22T19:27:50.698Z,7.40
2022-09-22T19:30:22.376Z,6.65
2022-09-22T19:32:51.426Z,7.90
2022-09-22T19:35:19.512Z,6.55
2022-09-22T19:37:47.193Z,9.63
2022-09-22T19:40:18.534Z,7.97
2022-09-22T19:42:47.193Z,11.63
2022-09-22T19:45:15.487Z,12.55
2022-09-22T19:47:42.806Z,15.65
2022-09-22T19:50:13.346Z,13.73
2022-09-22T19:52:40.946Z,11.25
2022-09-22T19:55:11.365Z,9.25
2022-09-22T19:57:41.539Z,8.55
2022-09-22T20:00:12.564Z,9.95
2022-09-22T20:02:40.176Z,14.05
2022-09-22T20:05:17.351Z,18.23
2022-09-22T20:07:44.919Z,16.15
2022-09-22T20:10:13.218Z,12.30
2022-09-22T20:12:40.537Z,8.57
2022-09-22T20:15:08.495Z,11.93
2022-09-22T20:17:35.775Z,11.20
2022-09-22T20:20:03.266Z,13.80
2022-09-22T20:22:31.338Z,14.43
2022-09-22T20:25:01.389Z,12.77
2022-09-22T20:27:33.648Z,10.75
2022-09-22T20:30:01.650Z,10.25
2022-09-22T20:32:34.637Z,9.70
2022-09-22T20:35:02.230Z,9.13
2022-09-22T20:37:32.149Z,11.60
2022-09-22T20:39:59.458Z,7.60
2022-09-22T20:42:27.011Z,6.97
2022-09-22T20:44:55.029Z,7.32
2022-09-22T20:47:25.364Z,9.90
2022-09-22T20:49:53.114Z,8.07
2022-09-22T20:52:21.006Z,9.27
2022-09-22T20:54:48.477Z,7.40
2022-09-22T20:57:16.951Z,10.07
2022-09-22T20:59:45.795Z,7.40
2022-09-22T21:02:14.529Z,7.22
2022-09-22T21:04:42.301Z,11.32
2022-09-22T21:07:11.318Z,7.80
2022-09-22T21:09:57.236Z,6.12
2022-09-22T21:12:30.693Z,9.25
2022-09-22T21:14:58.738Z,8.65
2022-09-22T21:17:27.754Z,7.75
2022-09-22T21:19:57.759Z,7.15
2022-09-22T21:22:28.023Z,7.62
2022-09-22T21:25:03.151Z,7.82
2022-09-22T21:27:30.431Z,6.40
2022-09-22T21:29:58.004Z,8.00
2022-09-22T21:32:25.369Z,5.85
2022-09-22T21:34:52.667Z,7.05
2022-09-22T21:37:20.997Z,6.75
2022-09-22T21:39:48.284Z,7.05
2022-09-22T21:42:15.847Z,6.07
2022-09-22T21:44:43.411Z,6.37
2022-09-22T21:47:11.427Z,7.65
2022-09-22T21:49:38.716Z,5.90
2022-09-22T21:52:06.299Z,7.37
2022-09-22T21:54:33.826Z,7.32
2022-09-22T21:57:01.373Z,5.82
2022-09-22T21:59:29.703Z,5.80
2022-09-22T22:01:57.344Z,6.80
2022-09-22T22:04:25.135Z,6.72
2022-09-22T22:06:52.479Z,6.18
2022-09-22T22:09:21.957Z,7.03
2022-09-22T22:11:53.784Z,7.30
2022-09-22T22:14:22.434Z,5.73
2022-09-22T22:16:52.007Z,6.28
2022-09-22T22:19:21.192Z,6.87
2022-09-22T22:21:50.209Z,7.82
2022-09-22T22:24:30.455Z,7.25
2022-09-22T22:27:01.149Z,7.47
2022-09-22T22:29:34.648Z,7.60
2022-09-22T22:32:04.955Z,6.45
2022-09-22T22:34:32.592Z,7.45
2022-09-22T22:37:00.392Z,6.35
2022-09-22T22:39:28.329Z,6.57
2022-09-22T22:41:55.994Z,7.20
2022-09-22T22:44:23.328Z,6.70
2022-09-22T22:46:50.840Z,7.25
2022-09-22T22:49:18.426Z,6.87
2022-09-22T22:51:45.854Z,6.78
2022-09-22T22:54:14.484Z,6.85
2022-09-22T22:56:43.704Z,8.40
2022-09-22T22:59:11.748Z,7.72
2022-09-22T23:01:40.566Z,7.60
2022-09-22T23:04:10.279Z,7.55
2022-09-22T23:06:39.698Z,7.80
2022-09-22T23:09:08.420Z,8.45
2022-09-22T23:11:37.956Z,7.85
2022-09-22T23:14:08.404Z,9.20
2022-09-22T23:16:41.008Z,5.95
2022-09-22T23:21:36.680Z,6.30
2022-09-22T23:24:05.495Z,8.35
2022-09-22T23:26:54.332Z,7.87
2022-09-22T23:29:22.342Z,7.30
2022-09-22T23:31:49.718Z,7.87
2022-09-22T23:34:17.048Z,8.05
2022-09-22T23:36:45.299Z,8.90
2022-09-22T23:39:12.607Z,8.48
2022-09-22T23:41:39.939Z,6.80
2022-09-22T23:44:07.577Z,6.43
2022-09-22T23:46:35.044Z,9.38
2022-09-22T23:49:02.422Z,7.15
2022-09-22T23:51:30.671Z,6.22
2022-09-22T23:53:58.502Z,7.40
2022-09-22T23:56:26.039Z,10.32
2022-09-22T23:58:53.822Z,8.23
